createdAt,value
2022-11-01T00:01:46.637Z,2.74
2022-11-01T00:04:13.298Z,2.72
2022-11-01T00:06:40.078Z,2.68
2022-11-01T00:09:07.345Z,2.67
2022-11-01T00:11:34.054Z,2.63
2022-11-01T00:14:00.685Z,2.66
2022-11-01T00:16:27.636Z,2.57
2022-11-01T00:18:54.228Z,2.54
2022-11-01T00:21:21.292Z,2.52
2022-11-01T00:23:48.336Z,2.61
2022-11-01T00:26:20.865Z,2.62
2022-11-01T00:28:48.284Z,2.55
2022-11-01T00:31:16.552Z,2.53
2022-11-01T00:33:43.434Z,2.53
2022-11-01T00:36:10.562Z,2.48
2022-11-01T00:38:37.240Z,2.48
2022-11-01T00:41:04.652Z,2.45
2022-11-01T00:43:32.084Z,2.43
2022-11-01T00:45:59.725Z,2.39
2022-11-01T00:48:26.472Z,2.34
2022-11-01T00:50:53.540Z,2.43
2022-11-01T00:53:20.413Z,2.34
2022-11-01T00:55:47.265Z,2.43
2022-11-01T00:58:14.008Z,2.36
2022-11-01T01:00:40.606Z,2.36
2022-11-01T01:03:07.388Z,2.30
2022-11-01T01:05:35.430Z,2.33
2022-11-01T01:08:02.612Z,2.34
2022-11-01T01:10:29.213Z,2.27
2022-11-01T01:12:55.932Z,2.25
2022-11-01T01:15:22.647Z,2.26
2022-11-01T01:17:49.300Z,2.12
2022-11-01T01:20:16.035Z,2.24
2022-11-01T01:22:42.872Z,2.27
2022-11-01T01:25:10.583Z,2.23
2022-11-01T01:27:37.571Z,2.11
2022-11-01T01:30:07.717Z,2.17
2022-11-01T01:32:34.759Z,2.10
2022-11-01T01:35:01.792Z,2.03
2022-11-01T01:37:28.384Z,2.04
2022-11-01T01:39:55.041Z,2.02
2022-11-01T01:42:36.696Z,1.97
2022-11-01T01:45:15.894Z,1.96
2022-11-01T01:47:44.868Z,1.93
2022-11-01T01:50:33.304Z,1.92
2022-11-01T01:53:05.503Z,1.81
2022-11-01T01:55:40.344Z,1.80
2022-11-01T01:58:09.752Z,1.67
2022-11-01T02:00:36.468Z,1.63
2022-11-01T02:03:04.272Z,1.74
2022-11-01T02:05:51.266Z,1.79
2022-11-01T02:08:26.723Z,1.84
2022-11-01T02:11:05.199Z,1.76
2022-11-01T02:13:32.064Z,1.62
2022-11-01T02:16:07.855Z,1.67
2022-11-01T02:18:40.559Z,1.70
2022-11-01T02:21:29.043Z,1.62
2022-11-01T02:24:36.315Z,1.66
2022-11-01T02:27:20.068Z,1.65
2022-11-01T02:30:05.520Z,1.63
2022-11-01T02:32:52.175Z,1.54
2022-11-01T02:35:33.580Z,1.58
2022-11-01T02:38:14.540Z,1.47
2022-11-01T02:41:08.739Z,1.45
2022-11-01T02:43:56.640Z,1.46
2022-11-01T02:46:41.732Z,1.30
2022-11-01T02:49:11.364Z,1.36
2022-11-01T02:51:39.152Z,1.30
2022-11-01T02:54:08.056Z,1.27
2022-11-01T02:56:35.313Z,1.24
2022-11-01T02:59:01.976Z,1.14
2022-11-01T03:01:29.437Z,1.11
2022-11-01T03:03:57.583Z,1.22
2022-11-01T03:06:32.671Z,1.18
2022-11-01T03:09:10.130Z,1.19
2022-11-01T03:11:47.898Z,1.15
2022-11-01T03:14:34.646Z,1.19
2022-11-01T03:17:39.823Z,1.14
2022-11-01T03:20:06.565Z,1.21
2022-11-01T03:22:45.035Z,1.19
2022-11-01T03:25:40.700Z,1.06
2022-11-01T03:28:23.405Z,1.03
2022-11-01T03:30:57.418Z,0.99
2022-11-01T03:33:25.871Z,0.99
2022-11-01T03:35:54.507Z,1.03
2022-11-01T03:38:24.942Z,1.02
2022-11-01T03:40:56.682Z,1.05
2022-11-01T03:43:24.331Z,1.02
2022-11-01T03:45:51.248Z,0.95
2022-11-01T03:48:17.933Z,0.89
2022-11-01T03:50:49.175Z,0.87
2022-11-01T03:53:16.097Z,0.90
2022-11-01T03:55:43.144Z,0.86
2022-11-01T03:58:09.982Z,0.87
2022-11-01T04:00:43.021Z,0.80
2022-11-01T04:03:10.953Z,0.77
2022-11-01T04:05:39.735Z,0.73
2022-11-01T04:08:07.522Z,0.71
2022-11-01T04:10:34.728Z,0.69
2022-11-01T04:13:01.969Z,0.67
2022-11-01T04:15:47.477Z,0.57
2022-11-01T04:18:36.614Z,0.59
2022-11-01T04:21:11.200Z,0.47
2022-11-01T04:23:37.998Z,0.48
2022-11-01T04:26:05.553Z,0.46
2022-11-01T04:28:32.248Z,0.49
2022-11-01T04:30:58.944Z,0.43
2022-11-01T04:33:25.568Z,0.44
2022-11-01T04:35:52.267Z,0.44
2022-11-01T04:38:18.902Z,0.35
2022-11-01T04:40:45.616Z,0.39
2022-11-01T04:43:13.094Z,0.41
2022-11-01T04:45:40.355Z,0.40
2022-11-01T04:48:13.592Z,0.33
2022-11-01T04:50:41.763Z,0.34
2022-11-01T04:53:08.994Z,0.25
2022-11-01T04:55:36.065Z,0.32
2022-11-01T04:58:06.750Z,0.24
2022-11-01T05:00:34.203Z,0.12
2022-11-01T05:03:06.131Z,0.33
2022-11-01T05:05:33.473Z,0.41
2022-11-01T05:08:06.492Z,0.36
2022-11-01T05:10:34.328Z,0.39
2022-11-01T05:13:01.889Z,0.41
2022-11-01T05:15:29.079Z,0.47
2022-11-01T05:17:55.747Z,0.53
2022-11-01T05:20:22.437Z,0.51
2022-11-01T05:22:49.211Z,0.50
2022-11-01T05:25:16.801Z,0.57
2022-11-01T05:27:43.536Z,0.58
2022-11-01T05:30:10.721Z,0.71
2022-11-01T05:32:38.067Z,0.64
2022-11-01T05:35:04.955Z,0.76
2022-11-01T05:37:31.578Z,0.86
2022-11-01T05:39:58.217Z,0.82
2022-11-01T05:42:24.856Z,0.94
2022-11-01T05:44:51.449Z,1.01
2022-11-01T05:47:18.028Z,1.01
2022-11-01T05:49:44.703Z,0.90
2022-11-01T05:52:12.096Z,1.13
2022-11-01T05:54:38.737Z,1.18
2022-11-01T05:57:05.957Z,1.27
2022-11-01T05:59:32.641Z,1.16
2022-11-01T06:01:59.411Z,1.27
2022-11-01T06:04:26.171Z,1.47
2022-11-01T06:06:52.747Z,1.54
2022-11-01T06:09:19.331Z,1.54
2022-11-01T06:11:45.940Z,1.57
2022-11-01T06:14:12.684Z,1.72
2022-11-01T06:16:39.430Z,1.65
2022-11-01T06:19:06.041Z,1.58
2022-11-01T06:21:32.677Z,1.82
2022-11-01T06:23:59.290Z,1.97
2022-11-01T06:26:25.890Z,1.93
2022-11-01T06:28:52.552Z,2.08
2022-11-01T06:31:19.708Z,2.18
2022-11-01T06:33:49.414Z,2.29
2022-11-01T06:36:16.099Z,2.32
2022-11-01T06:38:42.686Z,2.40
2022-11-01T06:41:09.356Z,2.47
2022-11-01T06:43:36.015Z,2.54
2022-11-01T06:46:02.737Z,2.45
2022-11-01T06:48:29.617Z,2.58
2022-11-01T07:31:06.895Z,3.89
2022-11-01T07:33:33.732Z,4.26
2022-11-01T07:36:01.485Z,4.41
2022-11-01T07:38:28.294Z,4.38
2022-11-01T07:40:55.026Z,4.66
2022-11-01T07:43:22.009Z,4.74
2022-11-01T07:45:48.719Z,4.86
2022-11-01T07:48:17.581Z,4.95
2022-11-01T07:50:44.985Z,4.95
2022-11-01T07:53:16.812Z,5.23
2022-11-01T07:55:44.121Z,5.10
2022-11-01T07:58:11.793Z,5.35
2022-11-01T08:04:19.238Z,5.23
2022-11-01T08:06:48.287Z,5.73
2022-11-01T08:09:18.259Z,5.82
2022-11-01T08:11:44.880Z,5.73
2022-11-01T08:14:12.417Z,5.88
2022-11-01T08:16:39.182Z,5.91
2022-11-01T08:19:05.825Z,6.09
2022-11-01T08:21:32.767Z,6.12
2022-11-01T08:23:59.435Z,6.12
2022-11-01T08:26:26.301Z,6.26
2022-11-01T08:28:53.036Z,6.41
2022-11-01T08:35:00.460Z,6.39
2022-11-01T08:37:27.045Z,6.47
2022-11-01T08:39:55.014Z,6.47
2022-11-01T08:42:22.013Z,6.57
2022-11-01T08:44:48.643Z,6.53
2022-11-01T08:47:16.081Z,6.63
2022-11-01T08:49:42.668Z,6.61
2022-11-01T08:52:09.297Z,6.71
2022-11-01T08:54:35.919Z,6.87
2022-11-01T08:57:02.835Z,6.81
2022-11-01T08:59:29.574Z,7.05
2022-11-01T09:02:03.623Z,7.00
2022-11-01T09:04:30.398Z,7.07
2022-11-01T09:06:57.106Z,7.08
2022-11-01T09:09:23.685Z,7.12
2022-11-01T09:11:50.377Z,7.08
2022-11-01T09:14:17.288Z,7.25
2022-11-01T09:16:43.875Z,7.31
2022-11-01T09:19:10.684Z,7.41
2022-11-01T09:21:37.278Z,7.56
2022-11-01T09:24:04.036Z,7.64
2022-11-01T09:26:30.681Z,7.56
2022-11-01T09:28:58.850Z,7.60
2022-11-01T09:31:25.552Z,7.70
2022-11-01T09:33:54.859Z,7.67
2022-11-01T09:36:21.497Z,7.73
2022-11-01T09:38:48.115Z,7.88
2022-11-01T09:41:23.904Z,7.96
2022-11-01T09:43:52.286Z,7.89
2022-11-01T09:48:55.615Z,8.01
2022-11-01T09:51:24.610Z,8.03
2022-11-01T09:53:53.999Z,8.07
2022-11-01T09:56:40.683Z,7.94
2022-11-01T09:59:21.532Z,7.90
2022-11-01T10:02:30.452Z,8.06
2022-11-01T10:05:03.259Z,8.00
2022-11-01T10:07:45.410Z,7.95
2022-11-01T10:10:39.366Z,7.92
2022-11-01T10:13:22.780Z,7.92
2022-11-01T10:16:20.352Z,8.23
2022-11-01T10:19:06.245Z,8.36
2022-11-01T10:21:42.921Z,8.23
2022-11-01T10:24:20.037Z,8.27
2022-11-01T10:26:49.226Z,8.35
2022-11-01T10:29:26.687Z,8.44
2022-11-01T10:31:53.906Z,8.47
2022-11-01T10:34:36.384Z,8.47
2022-11-01T10:37:29.529Z,8.65
2022-11-01T10:40:13.649Z,8.44
2022-11-01T10:42:40.767Z,8.59
2022-11-01T10:45:10.590Z,8.78
2022-11-01T10:47:37.368Z,8.78
2022-11-01T10:50:20.123Z,9.03
2022-11-01T10:53:06.574Z,8.93
2022-11-01T10:55:50.203Z,9.07
2022-11-01T10:58:33.770Z,9.05
2022-11-01T11:01:03.193Z,9.11
2022-11-01T11:03:33.900Z,9.20
2022-11-01T11:06:04.983Z,9.32
2022-11-01T11:08:34.384Z,9.23
2022-11-01T11:11:07.845Z,9.36
2022-11-01T11:13:35.248Z,9.34
2022-11-01T11:16:06.732Z,9.42
2022-11-01T11:18:35.447Z,9.61
2022-11-01T11:21:04.834Z,9.63
2022-11-01T11:23:36.688Z,9.35
2022-11-01T11:26:06.483Z,9.53
2022-11-01T11:28:38.927Z,9.64
2022-11-01T11:31:35.164Z,9.59
2022-11-01T11:34:34.002Z,9.71
2022-11-01T11:37:05.926Z,9.80
2022-11-01T11:39:37.249Z,10.01
2022-11-01T11:42:14.380Z,9.69
2022-11-01T11:44:42.989Z,9.71
2022-11-01T11:47:24.638Z,9.73
2022-11-01T11:49:58.094Z,9.80
2022-11-01T11:52:36.865Z,9.74
2022-11-01T11:55:05.635Z,9.97
2022-11-01T11:57:32.325Z,10.02
2022-11-01T12:00:00.263Z,10.16
2022-11-01T12:02:28.668Z,10.30
2022-11-01T12:05:03.972Z,10.41
2022-11-01T12:07:50.337Z,10.41
2022-11-01T12:10:31.408Z,10.20
2022-11-01T12:12:58.477Z,10.45
2022-11-01T12:15:37.042Z,10.13
2022-11-01T12:18:19.158Z,10.29
2022-11-01T12:20:51.069Z,10.34
2022-11-01T12:23:35.007Z,10.35
2022-11-01T12:26:05.335Z,10.24
2022-11-01T12:28:42.858Z,10.16
2022-11-01T12:31:15.400Z,10.15
2022-11-01T12:33:50.190Z,10.14
2022-11-01T12:36:19.820Z,10.19
2022-11-01T12:38:49.412Z,10.09
2022-11-01T12:41:24.382Z,10.03
2022-11-01T12:43:56.437Z,9.98
2022-11-01T12:46:48.961Z,10.02
2022-11-01T12:49:37.775Z,10.12
2022-11-01T12:52:45.942Z,10.11
2022-11-01T12:55:14.221Z,10.11
2022-11-01T12:57:43.595Z,10.02
2022-11-01T13:00:18.381Z,10.19
2022-11-01T13:03:04.040Z,10.26
2022-11-01T13:05:55.338Z,10.33
2022-11-01T13:08:30.765Z,10.41
2022-11-01T13:11:09.608Z,10.43
2022-11-01T13:13:54.976Z,10.41
2022-11-01T13:16:39.250Z,10.42
2022-11-01T13:19:43.598Z,10.26
2022-11-01T13:22:23.011Z,10.22
2022-11-01T13:24:57.720Z,10.08
2022-11-01T13:27:32.775Z,10.19
2022-11-01T13:30:05.145Z,10.16
2022-11-01T13:33:01.077Z,10.10
2022-11-01T13:35:47.249Z,10.04
2022-11-01T13:38:13.868Z,9.99
2022-11-01T13:41:19.728Z,9.87
2022-11-01T13:43:55.653Z,9.77
2022-11-01T13:46:31.232Z,9.60
2022-11-01T13:49:10.084Z,9.55
2022-11-01T13:52:01.422Z,9.48
2022-11-01T13:54:33.479Z,9.40
2022-11-01T13:57:10.046Z,9.20
2022-11-01T13:59:36.599Z,9.25
2022-11-01T14:02:27.923Z,9.16
2022-11-01T14:05:00.505Z,9.07
2022-11-01T14:07:48.070Z,8.98
2022-11-01T14:10:17.702Z,8.93
2022-11-01T14:12:48.190Z,8.88
2022-11-01T14:15:20.861Z,8.78
2022-11-01T14:17:56.413Z,8.78
2022-11-01T14:20:26.009Z,8.74
2022-11-01T14:22:53.188Z,8.70
2022-11-01T14:27:51.827Z,8.63
2022-11-01T14:30:23.470Z,8.60
2022-11-01T14:33:14.127Z,8.52
2022-11-01T14:35:43.797Z,8.47
2022-11-01T14:38:16.255Z,8.48
2022-11-01T14:40:48.990Z,8.42
2022-11-01T14:43:18.466Z,8.50
2022-11-01T14:45:53.142Z,8.48
2022-11-01T14:48:24.301Z,8.50
2022-11-01T14:51:05.743Z,8.48
2022-11-01T14:53:34.155Z,8.42
2022-11-01T14:56:19.035Z,8.44
2022-11-01T14:58:46.337Z,8.28
2022-11-01T15:01:23.443Z,8.29
2022-11-01T15:03:59.830Z,8.33
2022-11-01T15:06:30.300Z,8.29
2022-11-01T15:09:03.790Z,8.30
2022-11-01T15:11:32.192Z,8.12
2022-11-01T15:14:01.460Z,8.12
2022-11-01T15:16:29.899Z,8.14
2022-11-01T15:19:06.292Z,8.11
2022-11-01T15:21:34.233Z,8.08
2022-11-01T15:24:03.043Z,7.92
2022-11-01T15:26:33.221Z,7.98
2022-11-01T15:29:06.736Z,7.91
2022-11-01T15:31:37.965Z,7.90
2022-11-01T15:34:28.941Z,8.06
2022-11-01T15:36:56.123Z,8.07
2022-11-01T15:39:29.033Z,8.00
2022-11-01T15:41:57.292Z,8.00
2022-11-01T15:44:23.882Z,8.00
2022-11-01T15:46:52.706Z,7.93
2022-11-01T15:49:23.176Z,7.90
2022-11-01T15:51:59.698Z,7.87
2022-11-01T15:54:45.803Z,7.85
2022-11-01T15:57:19.107Z,7.81
2022-11-01T16:00:07.453Z,7.68
2022-11-01T16:02:42.121Z,7.70
2022-11-01T16:05:35.231Z,7.80
2022-11-01T16:08:05.045Z,7.59
2022-11-01T16:10:31.785Z,7.59
2022-11-01T16:12:59.323Z,7.73
2022-11-01T16:15:31.775Z,7.57
2022-11-01T16:18:00.259Z,7.71
2022-11-01T16:20:41.050Z,7.72
2022-11-01T16:23:09.349Z,7.71
2022-11-01T16:25:37.941Z,7.57
2022-11-01T16:28:05.099Z,7.69
2022-11-01T16:30:34.232Z,7.51
2022-11-01T16:33:30.444Z,7.44
2022-11-01T16:38:44.290Z,7.38
2022-11-01T16:41:20.656Z,7.34
2022-11-01T16:43:55.313Z,7.28
2022-11-01T16:46:24.307Z,7.22
2022-11-01T16:49:03.552Z,7.21
2022-11-01T16:51:30.653Z,7.17
2022-11-01T16:54:00.311Z,7.08
2022-11-01T16:56:36.214Z,7.10
2022-11-01T16:59:07.626Z,7.09
2022-11-01T17:01:35.810Z,7.08
2022-11-01T17:04:03.732Z,7.17
2022-11-01T17:06:33.431Z,6.99
2022-11-01T17:09:04.288Z,7.10
2022-11-01T17:11:30.949Z,6.93
2022-11-01T17:13:57.529Z,7.01
2022-11-01T17:16:27.310Z,7.04
2022-11-01T17:18:57.598Z,7.16
2022-11-01T17:21:24.957Z,7.37
2022-11-01T17:23:52.720Z,7.47
2022-11-01T17:26:19.730Z,7.46
2022-11-01T17:28:52.108Z,7.31
2022-11-01T17:31:19.112Z,7.27
2022-11-01T17:33:45.929Z,7.15
2022-11-01T17:36:14.274Z,6.98
2022-11-01T17:38:41.156Z,7.01
2022-11-01T17:41:09.595Z,6.77
2022-11-01T17:43:36.317Z,6.91
2022-11-01T17:46:03.401Z,7.01
2022-11-01T17:48:30.036Z,6.81
2022-11-01T17:51:00.885Z,7.00
2022-11-01T17:53:27.502Z,6.99
2022-11-01T17:56:00.196Z,6.86
2022-11-01T17:58:26.816Z,6.74
2022-11-01T18:00:53.474Z,6.99
2022-11-01T18:03:20.172Z,6.95
2022-11-01T18:05:46.789Z,6.93
2022-11-01T18:08:18.547Z,7.02
2022-11-01T18:11:13.133Z,6.62
2022-11-01T18:14:04.034Z,6.90
2022-11-01T18:16:49.966Z,6.80
2022-11-01T18:19:16.425Z,6.66
2022-11-01T18:22:04.699Z,6.49
2022-11-01T18:24:45.308Z,6.46
2022-11-01T18:27:13.090Z,6.61
2022-11-01T18:29:42.104Z,6.76
2022-11-01T18:32:32.799Z,6.80
2022-11-01T18:35:17.837Z,6.61
2022-11-01T18:37:54.473Z,6.48
2022-11-01T18:40:25.563Z,6.38
2022-11-01T18:42:52.741Z,6.20
2022-11-01T18:45:28.499Z,6.10
2022-11-01T18:48:10.233Z,5.95
2022-11-01T18:50:38.591Z,5.77
2022-11-01T18:53:19.834Z,5.76
2022-11-01T18:55:49.742Z,5.60
2022-11-01T18:58:20.099Z,5.45
2022-11-01T19:00:58.973Z,5.61
2022-11-01T19:03:26.116Z,5.64
2022-11-01T19:05:52.699Z,5.66
2022-11-01T19:08:24.429Z,5.69
2022-11-01T19:10:52.161Z,5.68
2022-11-01T19:13:29.361Z,5.90
2022-11-01T19:15:58.025Z,5.77
2022-11-01T19:18:24.752Z,5.78
2022-11-01T19:20:56.541Z,5.82
2022-11-01T19:23:39.887Z,5.64
2022-11-01T19:26:35.165Z,5.66
2022-11-01T19:29:11.551Z,5.68
2022-11-01T19:31:39.128Z,5.74
2022-11-01T19:34:13.265Z,5.75
2022-11-01T19:36:46.148Z,5.63
2022-11-01T19:39:30.171Z,5.67
2022-11-01T19:42:15.640Z,5.62
2022-11-01T19:44:42.464Z,5.40
2022-11-01T19:47:30.222Z,5.73
2022-11-01T20:50:03.959Z,5.94
2022-11-01T20:52:45.957Z,6.02
2022-11-01T20:55:13.030Z,5.96
2022-11-01T20:57:40.082Z,5.84
2022-11-01T21:00:09.953Z,5.72
2022-11-01T21:02:36.884Z,5.81
2022-11-01T21:05:27.656Z,6.00
2022-11-01T21:08:11.127Z,5.81
2022-11-01T21:10:40.204Z,5.82
2022-11-01T21:13:27.209Z,5.81
2022-11-01T21:15:55.711Z,5.81
2022-11-01T21:18:28.121Z,5.89
2022-11-01T21:20:54.841Z,5.84
2022-11-01T21:23:21.370Z,5.81
2022-11-01T21:25:52.341Z,5.76
2022-11-01T21:28:42.218Z,5.74
2022-11-01T21:31:14.889Z,5.77
2022-11-01T21:33:50.758Z,5.71
2022-11-01T21:36:20.352Z,5.76
2022-11-01T21:38:52.201Z,5.72
2022-11-01T21:41:26.608Z,5.69
2022-11-01T21:43:53.282Z,5.63
2022-11-01T21:46:21.530Z,5.62
2022-11-01T21:48:49.721Z,5.55
2022-11-01T21:51:16.496Z,5.36
2022-11-01T21:53:43.177Z,5.46
2022-11-01T21:56:09.833Z,5.31
2022-11-01T21:58:36.465Z,5.22
2022-11-01T22:01:03.188Z,5.07
2022-11-01T22:03:29.868Z,5.02
2022-11-01T22:05:56.470Z,5.00
2022-11-01T22:08:23.144Z,4.96
2022-11-01T22:10:49.768Z,4.91
2022-11-01T22:13:16.520Z,4.82
2022-11-01T22:15:43.144Z,4.80
2022-11-01T22:18:09.744Z,4.76
2022-11-01T22:20:36.347Z,4.80
2022-11-01T22:23:03.202Z,4.80
2022-11-01T22:25:29.992Z,4.79
2022-11-01T22:27:56.697Z,4.73
2022-11-01T22:30:23.267Z,4.73
2022-11-01T22:32:49.893Z,4.78
2022-11-01T22:35:16.556Z,4.89
2022-11-01T22:37:43.209Z,4.69
2022-11-01T22:40:12.275Z,4.82
2022-11-01T22:42:38.885Z,4.75
2022-11-01T22:45:16.047Z,4.62
2022-11-01T22:47:43.192Z,4.69
2022-11-01T22:50:13.552Z,4.52
2022-11-01T22:52:45.199Z,4.51
2022-11-01T22:55:11.937Z,4.55
2022-11-01T22:57:58.908Z,4.52
2022-11-01T23:00:37.177Z,4.43
2022-11-01T23:03:42.232Z,4.38
2022-11-01T23:06:20.741Z,4.44
2022-11-01T23:08:47.734Z,4.35
2022-11-01T23:11:35.343Z,4.30
2022-11-01T23:14:37.892Z,4.27
2022-11-01T23:17:21.330Z,4.10
2022-11-01T23:19:51.065Z,4.20
2022-11-01T23:22:23.942Z,4.12
2022-11-01T23:24:52.680Z,4.17
2022-11-01T23:27:20.724Z,4.56
2022-11-01T23:29:52.183Z,4.52
2022-11-01T23:32:18.963Z,4.33
2022-11-01T23:34:46.440Z,4.21
2022-11-01T23:37:16.915Z,4.09
2022-11-01T23:39:43.596Z,4.16
2022-11-01T23:42:18.616Z,4.16
2022-11-01T23:44:46.760Z,4.15
2022-11-01T23:47:38.965Z,4.45
2022-11-01T23:50:15.175Z,4.63
2022-11-01T23:52:44.506Z,4.49
2022-11-01T23:55:38.527Z,4.36
2022-11-01T23:58:15.318Z,4.16
